Time;durP1;ratioP1;P1;durP2;ratioP2;P2;SDS_P1;SDS_P2;PMS_P1;PMS_P2;Temp;Humidity;BMP_temperature;BMP_pressure;BME280_temperature;BME280_humidity;BME280_pressure;Samples;Min_cycle;Max_cycle;Signal;HPM_P1;HPM_P2
2021/11/02 00:02:12;;;;;;;4.68;2.80;;;7.70;97.20;;;;;;4972949;28;20034;-75
2021/11/02 00:04:38;;;;;;;8.52;3.20;;;7.70;97.20;;;;;;4972324;28;20085;-75
2021/11/02 00:07:04;;;;;;;3.50;2.67;;;7.70;97.20;;;;;;4990225;28;20525;-74
2021/11/02 00:09:32;;;;;;;7.05;3.33;;;7.70;97.20;;;;;;4989900;28;20053;-75
2021/11/02 00:11:59;;;;;;;7.45;3.50;;;7.70;97.20;;;;;;4973026;28;20033;-75
2021/11/02 00:14:27;;;;;;;5.45;3.63;;;7.60;97.10;;;;;;4971657;28;20482;-75
2021/11/02 00:16:58;;;;;;;3.95;2.92;;;7.60;97.10;;;;;;4972385;28;20041;-75
2021/11/02 00:19:26;;;;;;;4.80;3.03;;;7.60;97.20;;;;;;4990437;28;20023;-75
2021/11/02 00:21:54;;;;;;;4.80;3.60;;;7.50;97.10;;;;;;4967793;28;20030;-76
2021/11/02 00:27:01;;;;;;;4.50;3.03;;;7.50;97.10;;;;;;4985813;28;20026;-75
2021/11/02 00:29:26;;;;;;;5.70;3.33;;;7.50;97.20;;;;;;4972977;28;20064;-75
2021/11/02 00:31:53;;;;;;;4.72;3.40;;;7.50;97.20;;;;;;4972801;28;20050;-76
2021/11/02 00:34:19;;;;;;;5.57;3.40;;;7.40;97.20;;;;;;4989005;28;20033;-76
2021/11/02 00:36:44;;;;;;;10.98;3.63;;;7.40;97.30;;;;;;4972245;28;20355;-75
2021/11/02 00:39:10;;;;;;;4.20;3.28;;;7.40;97.20;;;;;;4990292;28;20123;-76
2021/11/02 00:41:36;;;;;;;5.35;3.67;;;7.30;97.00;;;;;;4972737;28;20479;-75
2021/11/02 00:44:02;;;;;;;4.10;3.55;;;7.30;96.90;;;;;;4971716;28;20420;-75
2021/11/02 00:46:34;;;;;;;4.15;3.25;;;7.10;96.90;;;;;;4980201;28;20069;-75
2021/11/02 00:49:01;;;;;;;6.50;4.20;;;7.00;96.90;;;;;;4972746;28;20501;-76
2021/11/02 00:51:28;;;;;;;5.47;4.20;;;6.90;97.10;;;;;;4965629;28;20042;-75
2021/11/02 00:53:54;;;;;;;5.90;4.60;;;6.90;97.20;;;;;;4987957;28;20046;-75
2021/11/02 00:56:20;;;;;;;6.70;4.93;;;6.90;97.30;;;;;;4971571;28;20030;-76
2021/11/02 00:58:45;;;;;;;5.55;4.85;;;6.90;97.30;;;;;;4990641;28;20041;-76
2021/11/02 01:01:11;;;;;;;8.10;5.80;;;6.90;97.30;;;;;;4976563;28;20062;-75
2021/11/02 01:03:37;;;;;;;6.75;5.30;;;6.90;97.40;;;;;;4974881;28;20030;-76
2021/11/02 01:06:04;;;;;;;8.45;5.18;;;6.90;97.40;;;;;;4993660;28;20479;-76
2021/11/02 01:08:30;;;;;;;7.82;5.50;;;6.90;97.40;;;;;;4975787;28;20386;-76
2021/11/02 01:10:56;;;;;;;8.32;5.30;;;6.80;97.30;;;;;;4993391;28;20113;-76
2021/11/02 01:13:21;;;;;;;10.35;5.80;;;6.80;97.40;;;;;;4975488;28;20025;-75
2021/11/02 01:15:47;;;;;;;8.48;5.57;;;6.80;97.40;;;;;;4975831;28;20053;-75
2021/11/02 01:18:13;;;;;;;8.90;5.90;;;6.80;97.50;;;;;;4976098;28;20088;-75
2021/11/02 01:20:40;;;;;;;9.68;5.82;;;6.80;97.60;;;;;;4993765;28;20089;-75
2021/11/02 01:23:06;;;;;;;12.18;5.57;;;6.80;97.60;;;;;;4974685;28;20034;-75
2021/11/02 01:25:32;;;;;;;10.60;5.93;;;6.90;97.70;;;;;;4957984;28;20037;-75
2021/11/02 01:27:57;;;;;;;9.85;6.13;;;6.90;97.70;;;;;;4967399;28;20359;-75
2021/11/02 01:30:23;;;;;;;9.70;6.10;;;6.90;97.70;;;;;;4975840;28;20026;-75
2021/11/02 01:32:49;;;;;;;8.15;6.05;;;6.90;97.70;;;;;;4991817;28;20023;-75
2021/11/02 01:35:15;;;;;;;7.93;5.72;;;6.90;97.70;;;;;;4973580;28;20030;-75
2021/11/02 01:37:41;;;;;;;8.52;6.28;;;6.80;97.80;;;;;;4975150;28;20019;-75
2021/11/02 01:40:12;;;;;;;9.52;5.72;;;6.80;97.80;;;;;;4975798;28;20533;-75
2021/11/02 01:42:39;;;;;;;10.15;5.53;;;6.90;97.80;;;;;;4974798;28;20060;-76
2021/11/02 01:45:07;;;;;;;6.63;4.00;;;6.80;97.70;;;;;;4975498;28;20406;-76
2021/11/02 01:47:36;;;;;;;6.07;4.43;;;6.80;97.80;;;;;;4985241;28;20425;-76
2021/11/02 01:50:03;;;;;;;5.28;3.33;;;6.90;97.80;;;;;;4991707;28;20022;-76
2021/11/02 01:52:29;;;;;;;4.35;3.35;;;6.90;97.80;;;;;;4966965;28;20039;-75
2021/11/02 01:54:55;;;;;;;5.40;3.78;;;6.90;97.90;;;;;;4974485;28;20026;-76
2021/11/02 01:57:20;;;;;;;4.15;3.38;;;6.90;97.90;;;;;;4975451;28;20050;-76
2021/11/02 01:59:46;;;;;;;4.57;3.28;;;6.90;97.80;;;;;;4956088;28;20043;-76
2021/11/02 02:02:30;;;;;;;7.03;3.85;;;7.00;97.80;;;;;;4974942;28;20073;-76
2021/11/02 02:05:21;;;;;;;5.30;3.88;;;7.00;97.80;;;;;;4974267;28;20058;-76
2021/11/02 02:08:19;;;;;;;5.72;3.85;;;7.00;97.80;;;;;;4975262;28;20023;-75
2021/11/02 02:11:09;;;;;;;4.78;3.38;;;7.00;97.80;;;;;;4974107;28;20066;-76
2021/11/02 02:13:45;;;;;;;3.63;3.20;;;7.00;97.90;;;;;;4974224;28;20038;-76
2021/11/02 02:16:37;;;;;;;4.65;3.30;;;7.00;97.90;;;;;;4992624;28;20109;-75
2021/11/02 02:19:08;;;;;;;5.43;3.63;;;7.10;98.00;;;;;;4974689;28;20371;-76
2021/11/02 02:22:06;;;;;;;7.70;3.80;;;7.10;98.00;;;;;;4987853;28;20153;-76
2021/11/02 02:24:56;;;;;;;9.38;4.50;;;7.20;98.10;;;;;;4972245;28;20023;-75
2021/11/02 02:27:40;;;;;;;6.50;4.20;;;7.20;98.00;;;;;;4962476;28;20033;-77
2021/11/02 02:30:11;;;;;;;7.30;4.03;;;7.20;98.10;;;;;;4974138;28;20490;-76
2021/11/02 02:32:42;;;;;;;7.00;4.00;;;7.20;98.00;;;;;;4991453;28;20106;-76
2021/11/02 02:35:11;;;;;;;8.98;4.13;;;7.20;98.00;;;;;;4992111;28;20383;-76
2021/11/02 02:37:39;;;;;;;7.82;3.70;;;7.20;98.10;;;;;;4971521;28;20030;-76
2021/11/02 02:40:09;;;;;;;7.57;3.60;;;7.20;98.10;;;;;;4986707;28;20026;-76
2021/11/02 02:42:37;;;;;;;6.07;3.20;;;7.20;98.10;;;;;;4973341;28;20022;-76
2021/11/02 02:45:04;;;;;;;7.30;3.45;;;7.20;98.10;;;;;;4968312;28;20045;-75
2021/11/02 02:47:32;;;;;;;4.13;2.72;;;7.20;98.20;;;;;;4993169;28;20049;-75
2021/11/02 02:49:58;;;;;;;5.28;3.08;;;7.20;98.20;;;;;;4992028;28;20037;-76
2021/11/02 02:52:27;;;;;;;3.45;3.00;;;7.30;98.20;;;;;;4991467;28;20104;-76
2021/11/02 02:54:54;;;;;;;6.28;2.70;;;7.30;98.20;;;;;;4973568;28;20037;-76
2021/11/02 02:57:22;;;;;;;5.13;2.90;;;7.30;98.20;;;;;;4985003;28;20171;-76
2021/11/02 02:59:50;;;;;;;7.20;2.88;;;7.30;98.10;;;;;;4973869;28;20026;-76
2021/11/02 03:02:22;;;;;;;5.03;2.80;;;7.30;98.20;;;;;;4974237;28;20033;-76
2021/11/02 03:04:48;;;;;;;;;;;7.30;98.10;;;;;;4991654;28;20034;-75
2021/11/02 03:07:16;;;;;;;4.60;2.80;;;7.30;98.10;;;;;;4973667;28;19965;-75
2021/11/02 03:09:45;;;;;;;2.58;2.38;;;7.30;98.00;;;;;;4974047;28;20376;-76
2021/11/02 03:12:12;;;;;;;5.43;3.03;;;7.30;98.10;;;;;;4991312;28;20026;-75
2021/11/02 03:17:30;;;;;;;4.63;2.90;;;7.30;98.20;;;;;;4990931;28;20030;-76
2021/11/02 03:58:33;;;;;;;3.33;2.63;;;7.50;98.50;;;;;;4971946;28;20039;-76
2021/11/02 05:09:11;;;;;;;5.47;2.15;;;7.60;98.70;;;;;;5006182;28;20564;-75
2021/11/02 06:01:03;;;;;;;4.03;2.75;;;7.40;98.90;;;;;;5004093;28;20080;-75
2021/11/02 06:03:44;;;;;;;7.25;3.17;;;7.50;98.90;;;;;;4996477;28;20033;-74
2021/11/02 06:09:25;;;;;;;3.60;2.47;;;7.50;98.80;;;;;;4993873;28;20034;-75
2021/11/02 06:28:52;;;;;;;3.92;2.80;;;7.30;98.70;;;;;;5003234;28;20068;-74
2021/11/02 06:31:25;;;;;;;11.00;7.43;;;7.30;98.70;;;;;;4993014;28;20072;-74
2021/11/02 06:42:58;;;;;;;4.40;2.80;;;7.30;98.80;;;;;;4971033;28;20300;-74
2021/11/02 06:45:35;;;;;;;9.35;3.17;;;7.30;98.70;;;;;;5009895;28;20093;-75
2021/11/02 07:00:26;;;;;;;9.82;6.65;;;8.60;98.20;;;;;;4992297;28;20033;-73
2021/11/02 07:19:50;;;;;;;3.70;1.65;;;10.60;96.60;;;;;;4991026;28;20053;-75
2021/11/02 08:45:17;;;;;;;3.20;1.48;;;9.80;95.80;;;;;;4990557;28;20470;-72
2021/11/02 08:47:47;;;;;;;2.92;1.50;;;9.70;95.90;;;;;;4990605;28;20029;-74
2021/11/02 08:50:19;;;;;;;2.25;1.33;;;9.70;95.90;;;;;;4973030;28;20057;-72
2021/11/02 08:52:51;;;;;;;3.33;1.38;;;9.70;96.00;;;;;;4975949;28;20092;-70
2021/11/02 08:55:17;;;;;;;2.33;1.67;;;9.70;96.20;;;;;;4988900;28;20050;-69
2021/11/02 08:57:45;;;;;;;3.13;1.98;;;9.80;96.50;;;;;;4989834;28;20065;-71
2021/11/02 09:00:11;;;;;;;3.10;1.80;;;9.90;96.30;;;;;;4990186;28;20034;-70
2021/11/02 09:02:44;;;;;;;3.20;1.70;;;10.00;96.50;;;;;;4979065;28;20022;-71
2021/11/02 09:05:14;;;;;;;3.38;1.98;;;10.10;96.50;;;;;;4988381;28;20014;-70
2021/11/02 09:07:44;;;;;;;2.97;1.92;;;10.10;96.10;;;;;;4989882;28;20031;-71
2021/11/02 09:10:17;;;;;;;4.45;2.50;;;10.10;96.10;;;;;;4972299;28;20022;-70
2021/11/02 09:12:44;;;;;;;;;;;10.10;95.90;;;;;;4991436;28;20058;-74
2021/11/02 09:15:11;;;;;;;3.83;1.98;;;10.10;95.90;;;;;;4983061;28;20004;-75
2021/11/02 09:17:46;;;;;;;3.03;1.60;;;10.00;95.80;;;;;;4985674;28;20026;-70
2021/11/02 09:20:14;;;;;;;2.38;1.20;;;10.00;95.80;;;;;;4990020;28;20442;-74
2021/11/02 09:22:41;;;;;;;4.57;1.45;;;9.90;95.80;;;;;;4976673;28;20022;-73
2021/11/02 09:25:08;;;;;;;1.52;1.02;;;9.70;96.00;;;;;;4969516;28;20480;-74
2021/11/02 09:27:36;;;;;;;1.83;1.00;;;9.70;96.10;;;;;;4990547;28;20511;-73
2021/11/02 09:30:04;;;;;;;1.70;1.00;;;9.70;96.30;;;;;;4995246;28;20084;-73
2021/11/02 09:32:30;;;;;;;1.60;1.00;;;9.70;96.30;;;;;;4977494;28;20026;-75
2021/11/02 09:34:55;;;;;;;3.65;1.10;;;9.70;96.50;;;;;;4995909;28;20493;-74
2021/11/02 09:37:36;;;;;;;1.98;1.17;;;9.70;96.50;;;;;;4983698;28;20079;-74
2021/11/02 09:40:34;;;;;;;0.95;0.68;;;9.70;96.60;;;;;;4976225;28;20455;-75
2021/11/02 09:43:34;;;;;;;2.67;0.75;;;9.70;96.60;;;;;;4992560;28;20360;-74
2021/11/02 09:46:56;;;;;;;1.75;0.88;;;9.70;96.70;;;;;;4970228;28;20027;-72
2021/11/02 09:49:47;;;;;;;1.77;0.82;;;9.70;96.80;;;;;;4960194;28;20169;-74
2021/11/02 09:52:36;;;;;;;1.77;0.80;;;9.70;96.80;;;;;;4975940;28;20041;-72
2021/11/02 09:55:23;;;;;;;3.47;0.90;;;9.80;96.80;;;;;;4991934;28;20045;-73
2021/11/02 09:58:04;;;;;;;3.05;1.00;;;9.80;96.80;;;;;;4985480;28;20517;-72
2021/11/02 10:00:35;;;;;;;3.03;0.93;;;9.80;96.80;;;;;;4992544;28;20074;-73
2021/11/02 10:03:28;;;;;;;1.88;0.80;;;9.80;96.90;;;;;;4964506;28;20026;-73
2021/11/02 10:06:15;;;;;;;2.30;1.10;;;9.80;96.80;;;;;;4992345;28;20030;-73
2021/11/02 10:08:44;;;;;;;1.15;0.65;;;9.80;96.80;;;;;;4993109;28;20487;-73
2021/11/02 10:11:15;;;;;;;1.55;0.80;;;9.80;96.80;;;;;;4975635;28;20038;-73
2021/11/02 10:13:51;;;;;;;5.25;1.20;;;9.90;97.00;;;;;;4992233;28;20073;-73
2021/11/02 10:16:35;;;;;;;2.95;0.82;;;9.90;96.90;;;;;;4972249;28;20058;-73
2021/11/02 10:19:35;;;;;;;2.15;1.17;;;10.10;97.00;;;;;;4955913;28;20018;-73
2021/11/02 10:22:54;;;;;;;2.50;0.82;;;10.20;97.00;;;;;;4991452;28;20089;-74
2021/11/02 10:25:42;;;;;;;2.05;0.88;;;10.30;97.10;;;;;;4936029;29;20507;-73
2021/11/02 10:28:58;;;;;;;2.65;0.95;;;10.40;97.00;;;;;;4984190;28;20037;-74
2021/11/02 10:31:56;;;;;;;1.65;0.70;;;10.40;96.90;;;;;;4901820;28;20049;-72
2021/11/02 10:34:40;;;;;;;2.10;1.30;;;10.50;96.90;;;;;;4955421;28;20115;-75
2021/11/02 10:37:40;;;;;;;1.83;1.17;;;10.40;96.80;;;;;;4967739;28;20026;-75
2021/11/02 10:40:15;;;;;;;2.80;0.93;;;10.40;96.80;;;;;;4944959;28;20096;-72
2021/11/02 10:43:03;;;;;;;1.58;0.73;;;10.30;96.70;;;;;;4981062;28;20023;-75
2021/11/02 10:45:30;;;;;;;1.83;0.73;;;10.30;96.60;;;;;;4955705;28;20041;-77
2021/11/02 10:48:10;;;;;;;0.98;0.60;;;10.20;96.50;;;;;;4973911;28;20391;-76
2021/11/02 10:50:46;;;;;;;1.63;0.80;;;10.10;96.30;;;;;;4975047;28;20137;-75
2021/11/02 10:53:37;;;;;;;2.10;0.70;;;10.10;96.40;;;;;;4974150;28;20121;-76
2021/11/02 10:56:09;;;;;;;5.38;0.70;;;10.10;96.50;;;;;;4975025;28;20018;-75
2021/11/02 10:58:37;;;;;;;3.20;0.55;;;10.10;96.40;;;;;;4974657;28;20465;-75
2021/11/02 11:01:08;;;;;;;2.30;0.80;;;10.10;96.30;;;;;;4974852;28;20030;-75
2021/11/02 11:03:35;;;;;;;2.15;0.80;;;10.10;96.30;;;;;;4972749;28;20117;-76
2021/11/02 11:06:04;;;;;;;1.52;0.60;;;10.00;96.30;;;;;;4974403;28;20022;-75
2021/11/02 11:08:38;;;;;;;2.75;0.70;;;10.10;96.40;;;;;;4991816;28;20026;-77
2021/11/02 11:11:07;;;;;;;4.57;0.73;;;10.10;96.50;;;;;;4974726;28;20066;-76
2021/11/02 11:13:34;;;;;;;1.60;0.90;;;10.10;96.40;;;;;;4974239;28;20029;-75
2021/11/02 11:16:11;;;;;;;1.05;0.50;;;10.00;96.30;;;;;;4974305;28;20037;-76
2021/11/02 11:19:06;;;;;;;2.65;0.65;;;10.00;96.30;;;;;;4992099;28;20026;-75
2021/11/02 11:21:37;;;;;;;1.05;0.50;;;9.90;96.20;;;;;;4977367;28;20027;-76
2021/11/02 11:24:06;;;;;;;0.95;0.55;;;9.80;96.30;;;;;;4973910;28;20022;-75
2021/11/02 11:26:32;;;;;;;1.70;0.30;;;9.70;96.20;;;;;;4972371;28;20031;-75
2021/11/02 11:29:02;;;;;;;0.68;0.57;;;9.60;96.30;;;;;;4972685;28;20029;-75
2021/11/02 11:31:29;;;;;;;0.90;0.50;;;9.50;96.50;;;;;;4977269;28;20499;-75
2021/11/02 11:34:04;;;;;;;0.73;0.50;;;9.50;96.60;;;;;;4969136;28;20073;-76
2021/11/02 11:36:33;;;;;;;1.95;0.90;;;9.50;96.60;;;;;;4989343;28;20025;-74
2021/11/02 11:39:04;;;;;;;0.93;0.60;;;9.50;96.60;;;;;;4974186;28;20427;-75
2021/11/02 11:41:34;;;;;;;1.27;0.60;;;9.40;96.70;;;;;;4974666;28;20084;-76
2021/11/02 11:44:03;;;;;;;2.55;0.70;;;9.30;96.70;;;;;;4973520;28;20026;-75
2021/11/02 11:46:29;;;;;;;1.05;0.60;;;9.30;96.70;;;;;;4973947;28;20514;-77
2021/11/02 11:48:57;;;;;;;1.88;0.63;;;9.20;96.80;;;;;;4974647;28;20037;-76
2021/11/02 11:54:03;;;;;;;3.55;0.82;;;9.20;97.00;;;;;;5007062;28;20062;-71
2021/11/02 11:56:33;;;;;;;2.78;0.90;;;9.20;97.20;;;;;;4988484;28;20081;-69
2021/11/02 11:59:01;;;;;;;2.95;1.10;;;9.20;97.30;;;;;;4979833;28;20566;-70
2021/11/02 12:02:04;;;;;;;4.85;1.58;;;9.20;97.30;;;;;;4974503;28;20505;-70
2021/11/02 12:04:29;;;;;;;;;;;9.30;97.40;;;;;;4990683;28;20037;-70
2021/11/02 12:07:15;;;;;;;4.05;1.00;;;9.30;97.40;;;;;;4991644;28;19913;-71
2021/11/02 12:09:45;;;;;;;2.17;0.90;;;9.20;97.30;;;;;;4991028;28;20037;-71
2021/11/02 12:12:13;;;;;;;3.17;0.98;;;9.20;97.30;;;;;;4991219;28;20026;-72
2021/11/02 12:14:44;;;;;;;2.05;1.38;;;9.20;97.50;;;;;;4990269;28;20053;-71
2021/11/02 12:17:18;;;;;;;6.57;1.08;;;9.20;97.70;;;;;;4989598;28;20037;-71
2021/11/02 12:20:09;;;;;;;2.25;0.93;;;9.20;97.70;;;;;;4972481;28;20438;-72
2021/11/02 12:22:41;;;;;;;2.40;0.98;;;9.20;97.60;;;;;;4962006;28;20451;-72
2021/11/02 12:25:11;;;;;;;2.10;1.00;;;9.10;97.50;;;;;;4991586;28;20029;-75
2021/11/02 12:27:40;;;;;;;4.93;1.10;;;9.10;97.60;;;;;;4991657;28;20134;-67
2021/11/02 12:30:13;;;;;;;1.55;1.20;;;9.10;97.60;;;;;;4989648;28;20410;-71
2021/11/02 12:32:45;;;;;;;2.38;1.20;;;9.10;97.80;;;;;;4989163;28;20627;-69
2021/11/02 12:35:13;;;;;;;;;;;9.10;97.90;;;;;;4989420;28;20041;-70
2021/11/02 12:37:54;;;;;;;6.40;1.08;;;9.10;97.90;;;;;;4993469;28;20297;-68
2021/11/02 12:40:23;;;;;;;2.13;1.25;;;9.10;97.90;;;;;;4997685;28;20664;-77
2021/11/02 12:42:49;;;;;;;2.40;1.10;;;9.10;97.90;;;;;;4991598;28;20035;-75
2021/11/02 12:45:18;;;;;;;1.88;1.13;;;9.10;97.80;;;;;;4990569;28;20022;-76
2021/11/02 12:47:46;;;;;;;1.17;0.98;;;9.10;97.90;;;;;;4994914;28;20026;-74
2021/11/02 12:50:13;;;;;;;1.60;0.77;;;9.00;97.80;;;;;;4996535;28;20402;-73
2021/11/02 12:52:40;;;;;;;1.85;1.00;;;9.00;97.90;;;;;;4993468;28;20022;-74
2021/11/02 12:55:07;;;;;;;1.48;0.98;;;9.00;97.90;;;;;;4977900;28;20057;-76
2021/11/02 12:57:44;;;;;;;2.00;1.10;;;8.90;97.90;;;;;;4995144;28;20241;-74
2021/11/02 13:00:14;;;;;;;1.15;0.77;;;9.00;97.90;;;;;;4977194;28;20092;-74
2021/11/02 13:02:45;;;;;;;1.10;0.80;;;9.00;97.90;;;;;;4991871;28;20026;-74
2021/11/02 13:05:20;;;;;;;1.20;0.85;;;9.00;97.90;;;;;;4977288;28;20392;-74
2021/11/02 13:08:03;;;;;;;2.33;1.13;;;9.00;98.00;;;;;;4994523;28;20034;-74
2021/11/02 13:10:31;;;;;;;1.13;0.98;;;9.00;98.00;;;;;;4994259;28;20121;-73
2021/11/02 13:13:05;;;;;;;3.78;2.05;;;9.10;98.00;;;;;;4994248;28;20022;-74
2021/11/02 13:15:32;;;;;;;1.77;1.10;;;9.10;98.10;;;;;;4991115;28;20368;-74
2021/11/02 13:18:00;;;;;;;2.45;0.88;;;9.20;98.10;;;;;;4993132;28;20021;-74
2021/11/02 13:20:31;;;;;;;1.10;1.00;;;9.30;98.00;;;;;;5011808;28;20449;-73
2021/11/02 13:22:57;;;;;;;1.25;1.15;;;9.20;98.10;;;;;;4987865;28;20121;-74
2021/11/02 13:25:34;;;;;;;1.20;1.10;;;9.30;98.10;;;;;;4976552;28;20154;-74
2021/11/02 13:28:00;;;;;;;3.00;1.35;;;9.20;98.00;;;;;;4986877;28;20061;-73
2021/11/02 13:30:38;;;;;;;2.90;1.55;;;9.30;98.00;;;;;;4994220;28;20086;-73
2021/11/02 13:33:12;;;;;;;2.15;1.30;;;9.20;98.00;;;;;;4991574;28;20022;-73
2021/11/02 13:35:51;;;;;;;1.73;1.23;;;9.30;98.20;;;;;;4976235;28;20019;-73
2021/11/02 13:38:38;;;;;;;3.13;1.38;;;9.30;98.20;;;;;;4991487;28;20046;-73
2021/11/02 13:41:20;;;;;;;2.38;1.40;;;9.30;98.20;;;;;;4974509;28;20390;-73
2021/11/02 13:43:51;;;;;;;2.65;1.10;;;9.30;98.10;;;;;;4973924;28;20026;-73
2021/11/02 13:46:23;;;;;;;2.97;1.15;;;9.20;98.10;;;;;;4990220;28;20088;-74
2021/11/02 13:48:50;;;;;;;3.25;1.75;;;9.20;98.10;;;;;;4989847;28;20038;-75
2021/11/02 13:51:17;;;;;;;1.50;1.20;;;9.20;98.10;;;;;;4976355;28;20065;-76
2021/11/02 13:53:43;;;;;;;1.90;1.17;;;9.20;98.10;;;;;;4963891;28;20057;-76
2021/11/02 13:56:11;;;;;;;3.65;2.30;;;9.20;98.40;;;;;;4991148;28;20079;-74
2021/11/02 13:58:39;;;;;;;2.38;1.20;;;9.10;98.20;;;;;;4990848;28;20026;-76
2021/11/02 14:01:32;;;;;;;1.48;1.38;;;9.10;98.20;;;;;;4975107;28;20037;-76
2021/11/02 14:04:15;;;;;;;1.42;1.15;;;9.20;98.30;;;;;;4969603;28;20387;-73
2021/11/02 14:06:49;;;;;;;1.67;1.10;;;9.40;98.50;;;;;;4992534;28;20044;-74
2021/11/02 14:09:22;;;;;;;1.92;1.52;;;9.40;98.50;;;;;;4985329;28;20038;-75
2021/11/02 14:11:48;;;;;;;1.35;1.00;;;9.50;98.50;;;;;;4993536;28;20478;-75
2021/11/02 14:14:36;;;;;;;2.88;1.15;;;9.70;98.60;;;;;;4980201;28;20034;-75
2021/11/02 14:17:19;;;;;;;1.52;1.10;;;10.00;98.80;;;;;;4976216;28;20117;-74
2021/11/02 14:19:52;;;;;;;2.03;0.90;;;10.20;98.80;;;;;;4956605;28;20027;-72
2021/11/02 14:22:49;;;;;;;0.80;0.68;;;10.30;98.70;;;;;;4984368;28;20035;-77
2021/11/02 14:25:30;;;;;;;2.08;0.80;;;10.40;98.40;;;;;;4992287;28;20022;-76
2021/11/02 14:27:56;;;;;;;1.02;0.80;;;10.40;98.20;;;;;;4982802;28;20034;-73
2021/11/02 14:30:31;;;;;;;1.23;0.90;;;10.40;98.10;;;;;;4992792;28;20030;-74
2021/11/02 14:33:00;;;;;;;1.73;0.73;;;10.40;98.10;;;;;;4992639;28;20080;-76
2021/11/02 14:36:00;;;;;;;1.10;1.00;;;10.30;97.90;;;;;;4993391;28;20049;-74
2021/11/02 14:38:48;;;;;;;1.83;1.20;;;10.30;97.80;;;;;;4992363;28;20406;-73
2021/11/02 14:41:20;;;;;;;1.15;0.80;;;10.20;97.70;;;;;;4992528;28;20030;-74
2021/11/02 14:43:46;;;;;;;1.20;0.70;;;10.10;97.70;;;;;;4990898;28;20494;-74
2021/11/02 14:46:19;;;;;;;0.77;0.77;;;10.00;97.60;;;;;;4980830;28;20312;-72
2021/11/02 14:48:48;;;;;;;0.80;0.80;;;9.90;97.60;;;;;;4974951;28;20058;-74
2021/11/02 14:51:17;;;;;;;1.55;0.57;;;9.80;97.70;;;;;;4975081;28;20034;-74
2021/11/02 14:53:44;;;;;;;0.60;0.60;;;9.80;97.60;;;;;;4990302;28;20026;-76
2021/11/02 14:56:15;;;;;;;1.17;0.90;;;9.70;97.60;;;;;;4957358;28;20476;-74
2021/11/02 14:58:44;;;;;;;1.65;1.10;;;9.70;97.60;;;;;;4990074;28;20033;-75
2021/11/02 15:01:24;;;;;;;1.58;1.08;;;9.60;97.80;;;;;;4994313;28;20073;-75
2021/11/02 15:03:54;;;;;;;2.17;0.90;;;9.50;97.60;;;;;;4971003;28;20529;-75
2021/11/02 15:06:21;;;;;;;1.25;0.93;;;9.50;97.70;;;;;;4975171;28;20096;-76
2021/11/02 15:08:47;;;;;;;1.17;1.05;;;9.50;97.70;;;;;;5001222;28;20027;-75
2021/11/02 15:11:18;;;;;;;2.20;1.35;;;9.40;97.70;;;;;;4974537;28;20030;-76
2021/11/02 15:13:51;;;;;;;2.30;1.65;;;9.50;97.80;;;;;;4985993;28;20026;-75
2021/11/02 15:16:19;;;;;;;3.53;1.33;;;9.40;97.80;;;;;;4990819;28;20026;-76
2021/11/02 15:18:47;;;;;;;1.35;1.05;;;9.40;97.90;;;;;;4992716;28;20114;-77
2021/11/02 15:21:17;;;;;;;3.40;1.40;;;9.40;97.80;;;;;;4992545;28;20026;-76
2021/11/02 15:23:48;;;;;;;2.63;1.25;;;9.40;97.90;;;;;;4975604;28;20026;-74
2021/11/02 15:26:15;;;;;;;1.75;1.15;;;9.30;97.90;;;;;;4984308;28;20030;-75
2021/11/02 15:28:46;;;;;;;2.03;1.17;;;9.30;97.90;;;;;;4992082;28;20026;-76
2021/11/02 15:31:14;;;;;;;1.50;1.23;;;9.30;98.00;;;;;;4990782;28;20037;-76
2021/11/02 15:33:42;;;;;;;2.38;1.23;;;9.30;98.00;;;;;;4981933;28;20414;-76
2021/11/02 15:36:12;;;;;;;4.80;1.08;;;9.30;98.00;;;;;;4974887;28;20096;-75
2021/11/02 15:38:38;;;;;;;4.63;1.77;;;9.30;97.90;;;;;;4993718;28;20026;-75
2021/11/02 15:41:18;;;;;;;2.22;1.30;;;9.20;98.00;;;;;;4993154;28;20034;-75
2021/11/02 15:44:01;;;;;;;3.33;1.55;;;9.20;98.00;;;;;;4975342;28;20034;-75
2021/11/02 15:46:35;;;;;;;4.72;1.70;;;9.20;97.90;;;;;;4990396;28;20037;-75
2021/11/02 15:49:03;;;;;;;3.75;1.75;;;9.10;98.00;;;;;;4982870;28;20443;-75
2021/11/02 15:51:52;;;;;;;1.58;1.48;;;9.10;98.10;;;;;;4976004;28;20041;-75
2021/11/02 15:54:19;;;;;;;1.55;1.38;;;9.00;98.10;;;;;;4987804;28;20023;-75
2021/11/02 15:56:45;;;;;;;3.78;1.88;;;9.00;98.30;;;;;;4973588;28;20023;-75
2021/11/02 15:59:11;;;;;;;3.08;1.92;;;9.00;98.10;;;;;;4971279;28;20066;-75
2021/11/02 16:01:43;;;;;;;7.97;3.50;;;9.00;98.10;;;;;;4979470;28;20037;-75
2021/11/02 16:04:15;;;;;;;3.65;2.55;;;9.00;98.20;;;;;;4974571;28;20034;-75
2021/11/02 16:06:58;;;;;;;2.95;1.90;;;9.00;98.20;;;;;;4983868;28;20026;-75
2021/11/02 16:09:26;;;;;;;3.08;1.85;;;9.00;98.20;;;;;;4990751;28;20530;-75
2021/11/02 16:11:53;;;;;;;2.63;1.60;;;9.00;98.20;;;;;;4971560;28;20114;-75
2021/11/02 16:14:19;;;;;;;2.63;1.70;;;8.90;98.20;;;;;;4974525;28;20494;-74
2021/11/02 16:16:49;;;;;;;3.38;2.42;;;8.90;98.30;;;;;;5003731;28;20085;-74
2021/11/02 16:19:16;;;;;;;1.48;1.35;;;8.90;98.30;;;;;;4990984;28;20109;-74
2021/11/02 16:21:42;;;;;;;1.48;1.35;;;8.90;98.30;;;;;;4992027;28;20030;-75
2021/11/02 16:24:11;;;;;;;3.85;1.75;;;8.90;98.20;;;;;;4993714;28;20058;-75
2021/11/02 16:26:39;;;;;;;3.90;2.30;;;8.80;98.20;;;;;;4978056;28;20085;-74
2021/11/02 16:29:12;;;;;;;2.25;2.00;;;8.80;98.20;;;;;;5003614;28;20029;-75
2021/11/02 16:31:38;;;;;;;2.90;2.10;;;8.70;98.30;;;;;;4994485;28;20027;-75
2021/11/02 16:34:21;;;;;;;2.30;2.10;;;8.70;98.30;;;;;;4983265;28;20080;-76
2021/11/02 16:36:47;;;;;;;2.38;1.73;;;8.70;98.40;;;;;;4979261;28;20657;-76
2021/11/02 16:39:13;;;;;;;2.53;1.60;;;8.70;98.40;;;;;;4992254;28;20030;-76
2021/11/02 16:41:58;;;;;;;3.00;1.50;;;8.70;98.40;;;;;;4984774;28;20733;-74
2021/11/02 16:44:38;;;;;;;1.33;1.20;;;8.70;98.50;;;;;;5012584;28;20041;-76
2021/11/02 16:47:04;;;;;;;1.55;1.45;;;8.70;98.50;;;;;;4994786;28;20057;-75
2021/11/02 16:49:29;;;;;;;3.63;1.88;;;8.70;98.50;;;;;;4974574;28;20506;-71
2021/11/02 16:51:58;;;;;;;2.30;2.00;;;8.60;98.50;;;;;;4992717;28;20458;-69
2021/11/02 16:54:27;;;;;;;3.08;2.10;;;8.60;98.70;;;;;;4987833;28;20491;-70
2021/11/02 16:57:16;;;;;;;3.03;1.98;;;8.60;98.50;;;;;;4984449;28;20045;-75
2021/11/02 16:59:58;;;;;;;1.95;1.67;;;8.60;98.60;;;;;;4967999;28;20046;-75
2021/11/02 17:02:25;;;;;;;;;;;8.60;98.70;;;;;;4977934;28;20166;-75
2021/11/02 17:05:04;;;;;;;3.47;2.40;;;8.60;98.70;;;;;;4970675;28;20621;-76
2021/11/02 17:07:36;;;;;;;3.55;2.17;;;8.60;98.80;;;;;;4976104;28;20121;-75
2021/11/02 17:10:23;;;;;;;1.80;0.87;;;8.60;98.80;;;;;;5001683;28;20031;-75
2021/11/02 17:13:16;;;;;;;1.40;0.90;;;8.60;98.40;;;;;;4974528;28;20491;-74
2021/11/02 17:15:49;;;;;;;1.55;0.70;;;8.40;98.30;;;;;;4969309;28;20031;-76
2021/11/02 17:18:18;;;;;;;0.73;0.73;;;8.20;98.30;;;;;;4979496;28;20518;-76
2021/11/02 17:21:00;;;;;;;0.65;0.65;;;8.20;98.30;;;;;;4972168;28;20070;-76
2021/11/02 17:23:26;;;;;;;1.50;1.13;;;8.10;98.40;;;;;;4984832;28;20026;-75
2021/11/02 17:25:52;;;;;;;2.50;0.93;;;8.00;98.40;;;;;;4985753;28;20521;-76
2021/11/02 17:28:19;;;;;;;1.95;1.00;;;7.90;98.50;;;;;;4993823;28;20030;-75
2021/11/02 17:30:45;;;;;;;1.05;0.85;;;7.90;98.50;;;;;;4968957;28;20166;-73
2021/11/02 17:33:11;;;;;;;1.67;1.00;;;7.80;98.50;;;;;;4984936;28;20027;-72
2021/11/02 17:35:37;;;;;;;2.10;1.90;;;7.80;98.60;;;;;;4980811;28;20383;-75
2021/11/02 17:38:03;;;;;;;4.68;4.05;;;7.70;98.60;;;;;;4997925;28;20022;-76
2021/11/02 17:40:29;;;;;;;0.95;0.95;;;7.70;98.60;;;;;;4999712;28;20018;-77
2021/11/02 17:42:58;;;;;;;1.70;1.60;;;7.70;98.70;;;;;;4998168;28;20030;-76
2021/11/02 17:45:24;;;;;;;1.88;1.65;;;7.60;98.70;;;;;;4994242;28;20077;-75
2021/11/02 17:47:51;;;;;;;3.15;2.85;;;7.60;98.70;;;;;;4993554;28;20034;-76
2021/11/02 17:50:20;;;;;;;6.05;5.55;;;7.60;98.90;;;;;;4991455;28;20038;-76
2021/11/02 17:55:15;;;;;;;2.70;2.50;;;7.60;98.80;;;;;;5005028;28;20046;-75
2021/11/02 17:57:41;;;;;;;2.45;1.38;;;7.60;98.80;;;;;;4989815;28;20026;-75
2021/11/02 18:00:10;;;;;;;3.10;2.35;;;7.60;98.70;;;;;;5000383;28;20030;-75
2021/11/02 18:02:37;;;;;;;6.78;6.10;;;7.60;98.70;;;;;;5010336;28;20034;-73
2021/11/02 18:05:03;;;;;;;3.80;2.92;;;7.60;98.70;;;;;;5001431;28;20780;-73
2021/11/02 18:07:29;;;;;;;4.88;4.38;;;7.60;98.80;;;;;;4997689;28;20029;-72
2021/11/02 18:09:58;;;;;;;8.50;6.80;;;7.50;98.70;;;;;;5005996;28;20083;-72
2021/11/02 18:12:25;;;;;;;14.68;10.05;;;7.50;98.70;;;;;;5008153;28;20105;-72
2021/11/02 18:14:52;;;;;;;3.55;2.85;;;7.50;98.80;;;;;;4992668;28;20023;-75
2021/11/02 18:17:19;;;;;;;5.68;3.85;;;7.50;98.80;;;;;;5004822;28;20033;-73
2021/11/02 18:19:46;;;;;;;18.85;7.97;;;7.50;98.80;;;;;;4997775;28;20026;-72
2021/11/02 18:22:12;;;;;;;10.88;5.45;;;7.50;98.80;;;;;;4975640;28;20033;-73
2021/11/02 18:24:39;;;;;;;5.05;2.95;;;7.50;98.80;;;;;;4991187;28;20031;-75
2021/11/02 18:27:05;;;;;;;1.40;1.30;;;7.50;98.80;;;;;;5000481;28;20108;-74
2021/11/02 18:29:31;;;;;;;0.82;0.80;;;7.50;98.90;;;;;;4986530;28;20033;-74
2021/11/02 18:32:00;;;;;;;2.47;1.20;;;7.50;98.90;;;;;;4985105;28;20018;-74
2021/11/02 18:34:26;;;;;;;1.95;1.10;;;7.50;98.90;;;;;;4989402;28;20550;-76